Time;durP1;ratioP1;P1;durP2;ratioP2;P2;SDS_P1;SDS_P2;PMS_P1;PMS_P2;Temp;Humidity;BMP_temperature;BMP_pressure;BME280_temperature;BME280_humidity;BME280_pressure;Samples;Min_cycle;Max_cycle;Signal;HPM_P1;HPM_P2
2023/04/21 00:00:08;;;;;;;20.20;5.90;;;;;;;-143.84;81.72;45085.25;4972785;28;20489;-63
2023/04/21 00:02:38;;;;;;;22.43;6.30;;;;;;;-143.84;81.52;45079.53;4972822;28;20528;-63
2023/04/21 00:05:08;;;;;;;20.53;6.23;;;;;;;-143.84;81.21;45087.16;4972729;28;20449;-63
2023/04/21 00:07:36;;;;;;;15.93;6.90;;;;;;;-143.84;81.15;45083.34;4972834;28;20449;-63
2023/04/21 00:10:06;;;;;;;15.83;5.43;;;;;;;-143.84;80.93;45110.00;4972113;28;20906;-63
2023/04/21 00:12:33;;;;;;;23.87;6.33;;;;;;;-143.84;80.74;45094.78;4972062;28;20450;-63
2023/04/21 00:15:00;;;;;;;26.17;7.00;;;;;;;-143.84;80.08;45140.47;4972419;28;20488;-63
2023/04/21 00:17:27;;;;;;;25.57;5.20;;;;;;;-143.84;79.93;45092.88;4972100;28;20602;-63
2023/04/21 00:19:55;;;;;;;32.60;6.32;;;;;;;-143.84;79.97;45113.81;4972152;28;20481;-63
2023/04/21 00:22:22;;;;;;;32.55;5.63;;;;;;;-143.84;78.82;45132.84;4972316;28;20225;-63
2023/04/21 00:24:49;;;;;;;26.67;5.60;;;;;;;-143.84;78.54;45132.84;4972216;28;20658;-63
2023/04/21 00:27:17;;;;;;;14.43;4.47;;;;;;;-143.84;77.52;45136.66;4972290;28;20986;-63
2023/04/21 00:29:45;;;;;;;39.47;4.97;;;;;;;-143.84;77.66;45170.94;4972178;28;20448;-63
2023/04/21 00:32:12;;;;;;;12.73;4.80;;;;;;;-143.84;77.00;45151.91;4972044;28;20441;-63
2023/04/21 00:34:39;;;;;;;21.00;5.80;;;;;;;-143.84;76.74;45142.38;4972143;28;20466;-63
2023/04/21 00:37:06;;;;;;;20.27;4.47;;;;;;;-143.84;76.79;45144.28;4971481;28;20447;-63
2023/04/21 00:39:33;;;;;;;25.27;5.13;;;;;;;-143.84;76.23;45153.81;4971770;28;21118;-63
2023/04/21 00:42:01;;;;;;;12.30;4.83;;;;;;;-143.84;75.86;45176.66;4971930;28;20442;-63
2023/04/21 00:44:29;;;;;;;15.82;5.28;;;;;;;-143.84;76.09;45153.81;4971805;28;20529;-63
2023/04/21 00:46:57;;;;;;;21.90;5.10;;;;;;;-143.84;75.79;45167.13;4971811;28;20845;-63
2023/04/21 00:49:25;;;;;;;37.47;4.97;;;;;;;-143.84;76.06;45153.81;4971730;28;20506;-63
2023/04/21 00:51:52;;;;;;;45.53;5.87;;;;;;;-143.84;76.64;45155.69;4971689;28;20450;-63
2023/04/21 00:54:20;;;;;;;22.83;5.37;;;;;;;-143.84;76.88;45174.75;4971552;28;20448;-63
2023/04/21 00:56:47;;;;;;;26.93;5.20;;;;;;;-143.84;76.63;45165.22;4971689;28;20441;-63
2023/04/21 00:59:14;;;;;;;31.90;5.50;;;;;;;-143.84;76.27;45191.88;4971534;28;20500;-63
2023/04/21 01:01:43;;;;;;;25.23;5.40;;;;;;;-143.84;76.74;45186.16;4971291;28;20485;-63
2023/04/21 01:04:10;;;;;;;23.93;5.30;;;;;;;-143.84;76.21;45189.97;4971251;28;20450;-63
2023/04/21 01:06:38;;;;;;;17.23;5.30;;;;;;;-143.84;76.26;45170.94;4971491;28;20451;-63
2023/04/21 01:09:05;;;;;;;13.43;4.70;;;;;;;-143.84;76.19;45151.91;4971780;28;20442;-63
2023/04/21 01:11:32;;;;;;;20.70;4.87;;;;;;;-143.84;75.66;45161.41;4971300;28;20513;-63
2023/04/21 01:13:59;;;;;;;26.90;5.10;;;;;;;-143.84;76.00;45144.28;4971015;28;20491;-63
2023/04/21 01:16:27;;;;;;;21.37;5.10;;;;;;;-143.84;75.80;45191.88;4971194;28;20209;-63
2023/04/21 01:18:56;;;;;;;14.10;5.33;;;;;;;-143.84;76.31;45169.03;4970780;28;20481;-63
2023/04/21 01:21:23;;;;;;;17.00;4.40;;;;;;;-143.84;76.47;45153.81;4971555;28;21387;-63
2023/04/21 01:23:51;;;;;;;21.05;5.07;;;;;;;-143.84;76.48;45150.00;4970432;28;20441;-63
2023/04/21 01:26:20;;;;;;;22.30;4.90;;;;;;;-143.84;75.76;45167.13;4971013;28;20265;-63
2023/04/21 01:28:47;;;;;;;14.33;4.87;;;;;;;-143.84;75.83;45155.69;4970601;28;21006;-63
2023/04/21 01:31:15;;;;;;;27.40;6.60;;;;;;;-143.84;75.80;45163.31;4970637;28;20460;-63
2023/04/21 01:33:42;;;;;;;20.37;6.43;;;;;;;-143.84;76.52;45151.91;4971220;28;20497;-63
2023/04/21 01:36:10;;;;;;;22.03;5.03;;;;;;;-143.84;76.30;45140.47;4970882;28;20520;-63
2023/04/21 01:38:39;;;;;;;33.27;5.47;;;;;;;-143.84;76.41;45167.13;4971036;28;20430;-63
2023/04/21 01:41:09;;;;;;;23.60;5.00;;;;;;;-143.84;76.55;45138.56;4970666;28;20480;-63
2023/04/21 01:43:37;;;;;;;20.13;5.70;;;;;;;-143.84;76.09;45144.28;4970740;28;20281;-63
2023/04/21 01:46:04;;;;;;;25.63;5.23;;;;;;;-143.84;75.89;45151.91;4970857;28;21023;-63
2023/04/21 01:48:31;;;;;;;12.50;4.83;;;;;;;-143.84;76.04;45176.66;4970788;28;20493;-63
2023/04/21 01:50:58;;;;;;;21.30;5.40;;;;;;;-143.84;76.34;45159.50;4970658;28;20442;-64
2023/04/21 01:53:25;;;;;;;38.50;5.90;;;;;;;-143.84;76.01;45170.94;4970342;28;20461;-63
2023/04/21 01:55:53;;;;;;;32.30;4.85;;;;;;;-143.84;76.00;45161.41;4970319;28;20441;-63
2023/04/21 01:58:22;;;;;;;32.83;5.60;;;;;;;-143.84;75.97;45157.59;4970030;28;20257;-63
2023/04/21 02:00:49;;;;;;;29.27;5.73;;;;;;;-143.84;75.36;45207.13;4970486;28;20544;-63
2023/04/21 02:03:16;;;;;;;28.27;5.57;;;;;;;-143.84;75.27;45161.41;4970361;28;21154;-63
2023/04/21 02:05:43;;;;;;;29.17;6.13;;;;;;;-143.84;75.25;45155.69;4970270;28;20446;-63
2023/04/21 02:08:10;;;;;;;40.67;6.37;;;;;;;-143.84;75.42;45174.75;4970147;28;20583;-63
2023/04/21 02:10:37;;;;;;;24.63;7.35;;;;;;;-143.84;75.21;45163.31;4970236;28;21149;-63
2023/04/21 02:13:04;;;;;;;19.10;5.10;;;;;;;-143.84;75.07;45167.13;4970472;28;20265;-63
2023/04/21 02:15:33;;;;;;;22.70;5.40;;;;;;;-143.84;74.50;45178.56;4970283;28;20449;-63
2023/04/21 02:18:00;;;;;;;22.48;5.40;;;;;;;-143.84;74.53;45197.59;4970034;28;20570;-64
2023/04/21 02:20:27;;;;;;;38.57;6.23;;;;;;;-143.84;74.70;45184.25;4969925;28;20289;-63
2023/04/21 02:22:54;;;;;;;25.35;5.43;;;;;;;-143.84;74.58;45186.16;4970038;28;20833;-64
2023/04/21 02:25:22;;;;;;;17.97;5.27;;;;;;;-143.84;74.50;45155.69;4969765;28;20291;-63
2023/04/21 02:27:49;;;;;;;13.95;5.25;;;;;;;-143.84;74.22;45148.09;4970109;28;20528;-64
2023/04/21 02:30:16;;;;;;;33.00;5.35;;;;;;;-143.84;74.40;45172.84;4970029;28;20673;-64
2023/04/21 02:32:44;;;;;;;33.57;6.00;;;;;;;-143.84;73.99;45163.31;4969119;28;20209;-64
2023/04/21 02:35:11;;;;;;;21.93;5.37;;;;;;;-143.84;73.99;45169.03;4971755;28;20974;-64
2023/04/21 02:37:39;;;;;;;15.23;4.82;;;;;;;-143.84;74.01;45148.09;4973356;28;20491;-64
2023/04/21 02:40:07;;;;;;;15.50;5.90;;;;;;;-143.84;74.13;45170.94;4973087;28;20206;-64
2023/04/21 02:42:34;;;;;;;24.60;6.07;;;;;;;-143.84;74.21;45134.75;4973721;28;20448;-64
2023/04/21 02:45:01;;;;;;;24.60;6.47;;;;;;;-143.84;75.33;45195.69;4973789;28;20448;-63
2023/04/21 02:47:29;;;;;;;15.77;6.13;;;;;;;-143.84;76.40;45157.59;4973543;28;20449;-64
2023/04/21 02:49:57;;;;;;;13.77;5.93;;;;;;;-143.84;76.66;45148.09;4973655;28;20448;-63
2023/04/21 02:52:24;;;;;;;17.30;7.27;;;;;;;-143.84;76.35;45151.91;4973409;28;20449;-63
2023/04/21 02:55:02;;;;;;;15.65;5.22;;;;;;;-143.84;76.52;45146.19;4973397;28;20441;-63
2023/04/21 02:57:29;;;;;;;36.17;5.60;;;;;;;-143.84;75.92;45146.19;4973300;28;20195;-63
2023/04/21 02:59:58;;;;;;;16.83;4.93;;;;;;;-143.84;75.81;45161.41;4973571;28;20438;-64
2023/04/21 03:02:31;;;;;;;15.67;4.40;;;;;;;-143.84;75.54;45188.06;4973121;28;20485;-63
2023/04/21 03:04:59;;;;;;;34.10;6.63;;;;;;;-143.84;75.80;45146.19;4973556;28;21476;-63
2023/04/21 03:07:34;;;;;;;13.23;5.50;;;;;;;-143.84;75.86;45167.13;4973467;28;20484;-64
2023/04/21 03:10:02;;;;;;;20.50;5.63;;;;;;;-143.84;76.32;45167.13;4973257;28;20455;-63
2023/04/21 03:12:32;;;;;;;29.83;5.95;;;;;;;-143.84;75.51;45159.50;4973196;28;20932;-63
2023/04/21 03:14:59;;;;;;;23.97;5.90;;;;;;;-143.84;75.37;45153.81;4973326;28;20206;-63
2023/04/21 03:17:26;;;;;;;23.60;5.72;;;;;;;-143.84;74.84;45186.16;4973174;28;20878;-64
2023/04/21 03:19:53;;;;;;;18.13;6.00;;;;;;;-143.84;74.90;45163.31;4967666;28;20207;-64
2023/04/21 03:22:29;;;;;;;16.17;5.32;;;;;;;-143.84;75.21;45165.22;4953978;28;20485;-63
2023/04/21 03:24:56;;;;;;;31.02;7.00;;;;;;;-143.84;75.24;45155.69;4955840;28;21056;-62
2023/04/21 03:27:23;;;;;;;22.83;5.70;;;;;;;-143.84;75.48;45169.03;4954890;28;20929;-65
2023/04/21 03:29:50;;;;;;;34.47;6.20;;;;;;;-143.84;76.22;45153.81;4953710;28;20506;-65
2023/04/21 03:32:22;;;;;;;22.23;6.00;;;;;;;-143.84;77.33;45165.22;4953706;28;21162;-66
2023/04/21 03:34:51;;;;;;;23.75;5.70;;;;;;;-143.84;78.06;45163.31;4953417;29;20971;-66
2023/04/21 03:37:23;;;;;;;17.33;5.80;;;;;;;-143.84;77.65;45170.94;4953603;28;20250;-63
2023/04/21 03:39:51;;;;;;;11.30;6.20;;;;;;;-143.84;77.32;45142.38;4953256;28;20445;-64
2023/04/21 03:42:18;;;;;;;15.27;5.50;;;;;;;-143.84;77.06;45186.16;4953142;28;20482;-63
2023/04/21 03:44:48;;;;;;;16.43;4.43;;;;;;;-143.84;77.14;45151.91;4960493;28;20454;-64
2023/04/21 03:47:20;;;;;;;24.73;5.57;;;;;;;-143.84;77.48;45150.00;4971280;28;20859;-64
2023/04/21 03:49:51;;;;;;;16.67;5.20;;;;;;;-143.84;77.34;45148.09;4972398;28;20454;-64
2023/04/21 03:52:18;;;;;;;30.13;5.40;;;;;;;-143.84;77.66;45157.59;4979845;28;20441;-64
2023/04/21 03:54:46;;;;;;;11.60;5.80;;;;;;;-143.84;77.84;45157.59;4981774;28;20485;-64
2023/04/21 03:57:14;;;;;;;25.00;8.00;;;;;;;-143.84;77.46;45157.59;4975197;28;20446;-64
2023/04/21 03:59:42;;;;;;;19.33;7.45;;;;;;;-143.84;78.08;45159.50;4972138;28;20800;-64
2023/04/21 04:02:09;;;;;;;20.13;7.10;;;;;;;-143.84;78.37;45159.50;4971885;28;20230;-64
2023/04/21 04:04:36;;;;;;;32.47;6.90;;;;;;;-143.84;78.71;45125.22;4971770;28;20481;-64
2023/04/21 04:07:03;;;;;;;29.17;7.15;;;;;;;-143.84;78.41;45159.50;4971725;28;20442;-64
2023/04/21 04:09:30;;;;;;;22.63;7.43;;;;;;;-143.84;78.44;45136.66;4971607;28;20202;-64
2023/04/21 04:11:57;;;;;;;19.40;7.33;;;;;;;-143.84;79.28;45155.69;4972265;28;20449;-64
2023/04/21 04:14:26;;;;;;;23.63;7.70;;;;;;;-143.84;79.52;45130.94;4972152;28;20446;-64
2023/04/21 04:16:53;;;;;;;22.90;7.90;;;;;;;-143.84;79.52;45125.22;4971437;28;20461;-64
2023/04/21 04:19:20;;;;;;;24.13;6.40;;;;;;;-143.84;79.85;45104.28;4971701;28;20498;-64
2023/04/21 04:21:47;;;;;;;13.48;6.00;;;;;;;-143.84;79.90;45121.44;4971353;28;20484;-64
2023/04/21 04:24:15;;;;;;;31.00;6.57;;;;;;;-143.84;78.91;45132.84;4971346;28;20265;-64
2023/04/21 04:26:43;;;;;;;19.97;6.73;;;;;;;-143.84;78.61;45129.03;4971628;28;20265;-65
2023/04/21 04:29:10;;;;;;;31.97;6.73;;;;;;;-143.84;78.76;45150.00;4971679;28;20530;-65
2023/04/21 04:31:39;;;;;;;22.70;6.40;;;;;;;-143.84;78.63;45151.91;4971525;28;20457;-65
2023/04/21 04:34:06;;;;;;;37.80;5.87;;;;;;;-143.84;78.60;45106.19;4971576;28;20504;-64
2023/04/21 04:36:33;;;;;;;33.40;5.75;;;;;;;-143.84;78.17;45132.84;4971157;28;20446;-64
2023/04/21 04:39:00;;;;;;;13.10;5.70;;;;;;;-143.84;77.99;45163.31;4971529;28;20233;-66
2023/04/21 04:41:32;;;;;;;19.17;6.87;;;;;;;-143.84;78.08;45146.19;4971480;28;20516;-65
2023/04/21 04:43:59;;;;;;;16.17;6.73;;;;;;;-143.84;77.91;45121.44;4971087;28;20450;-65
2023/04/21 04:46:27;;;;;;;12.40;5.40;;;;;;;-143.84;77.69;45121.44;4971613;28;20536;-65
2023/04/21 04:48:55;;;;;;;23.93;5.80;;;;;;;-143.84;77.15;45169.03;4971328;28;20437;-65
2023/04/21 04:51:23;;;;;;;10.80;5.23;;;;;;;-143.84;76.77;45157.59;4971191;28;21313;-64
2023/04/21 04:53:50;;;;;;;24.00;5.53;;;;;;;-143.84;77.24;45144.28;4971406;28;20442;-65
2023/04/21 04:56:17;;;;;;;26.60;6.00;;;;;;;-143.84;77.18;45121.44;4971593;28;20538;-65
2023/04/21 04:58:45;;;;;;;31.57;6.60;;;;;;;-143.84;77.86;45130.94;4971220;28;20867;-64
2023/04/21 05:01:13;;;;;;;25.13;6.90;;;;;;;-143.84;78.21;45127.13;4971176;28;20598;-64
2023/04/21 05:03:40;;;;;;;21.93;7.00;;;;;;;-143.84;78.17;45144.28;4970995;28;20453;-64
2023/04/21 05:06:09;;;;;;;18.10;5.97;;;;;;;-143.84;77.88;45130.94;4970993;28;20811;-64
2023/04/21 05:08:37;;;;;;;38.73;6.03;;;;;;;-143.84;77.63;45136.66;4970976;28;20478;-65
2023/04/21 05:11:04;;;;;;;18.27;7.60;;;;;;;-143.84;78.99;45146.19;4970961;28;20512;-64
2023/04/21 05:13:31;;;;;;;20.90;7.37;;;;;;;-143.84;79.55;45132.84;4971018;28;20492;-64
2023/04/21 05:16:00;;;;;;;23.87;7.60;;;;;;;-143.84;79.59;45115.72;4970823;28;20508;-65
2023/04/21 05:18:28;;;;;;;52.33;8.33;;;;;;;-143.84;78.91;45127.13;4970650;28;20495;-64
2023/04/21 05:20:55;;;;;;;27.73;8.60;;;;;;;-143.84;79.14;45144.28;4971114;28;20490;-65
2023/04/21 05:23:24;;;;;;;32.83;8.03;;;;;;;-143.84;79.14;45125.22;4970993;28;20558;-64
2023/04/21 05:25:51;;;;;;;44.37;9.60;;;;;;;-143.84;79.57;45117.63;4970802;28;20508;-64
2023/04/21 05:28:18;;;;;;;20.07;8.27;;;;;;;-143.84;79.44;45138.56;4970937;28;20446;-64
2023/04/21 05:30:45;;;;;;;19.13;8.30;;;;;;;-143.84;78.65;45125.22;4970676;28;20785;-65
2023/04/21 05:33:12;;;;;;;26.47;7.80;;;;;;;-143.84;78.14;45117.63;4970890;28;20483;-65
2023/04/21 05:35:39;;;;;;;19.00;6.97;;;;;;;-143.84;77.73;45123.34;4970484;28;20437;-65
2023/04/21 05:38:07;;;;;;;34.90;7.67;;;;;;;-143.84;77.83;45129.03;4970561;28;20512;-65
2023/04/21 05:40:35;;;;;;;22.83;7.13;;;;;;;-143.84;77.51;45144.28;4970409;28;20441;-65
2023/04/21 05:43:02;;;;;;;26.33;6.53;;;;;;;-143.84;78.21;45111.91;4970606;28;20524;-65
2023/04/21 05:45:29;;;;;;;22.10;7.05;;;;;;;-143.84;78.02;45113.81;4970360;28;20202;-65
2023/04/21 05:47:56;;;;;;;36.27;8.73;;;;;;;-143.84;77.57;45127.13;4970787;28;20309;-65
2023/04/21 05:50:25;;;;;;;15.90;6.97;;;;;;;-143.84;77.04;45134.75;4970506;28;20486;-65
2023/04/21 05:52:52;;;;;;;22.97;7.73;;;;;;;-143.84;76.46;45153.81;4970453;28;20528;-65
2023/04/21 05:55:19;;;;;;;29.65;7.60;;;;;;;-143.84;75.98;45136.66;4970347;28;20442;-64
2023/04/21 05:57:47;;;;;;;26.00;7.20;;;;;;;-143.84;75.32;45150.00;4970395;28;20956;-65
2023/04/21 06:00:16;;;;;;;29.83;7.90;;;;;;;-143.84;75.68;45151.91;4970215;28;20991;-65
2023/04/21 06:02:43;;;;;;;27.57;6.73;;;;;;;-143.84;75.55;45138.56;4970135;28;20865;-65
2023/04/21 06:05:10;;;;;;;22.30;7.30;;;;;;;-143.84;75.88;45134.75;4969992;28;20867;-65
2023/04/21 06:07:37;;;;;;;20.20;8.77;;;;;;;-143.84;76.50;45132.84;4969854;28;20440;-65
2023/04/21 06:10:05;;;;;;;21.65;7.70;;;;;;;-143.84;77.09;45132.84;4969917;28;20493;-65
2023/04/21 06:12:32;;;;;;;23.13;6.57;;;;;;;-143.84;76.64;45140.47;4970282;28;20244;-64
2023/04/21 06:15:00;;;;;;;22.80;5.63;;;;;;;-143.84;76.66;45146.19;4970268;28;20446;-64
2023/04/21 06:17:28;;;;;;;20.63;6.60;;;;;;;-143.84;77.21;45123.34;4970023;28;20528;-65
2023/04/21 06:19:55;;;;;;;23.20;5.40;;;;;;;-143.84;77.67;45146.19;4970483;28;20437;-65
2023/04/21 06:22:22;;;;;;;14.90;4.82;;;;;;;-143.84;78.25;45161.41;4970272;28;20555;-64
2023/04/21 06:24:49;;;;;;;7.17;3.40;;;;;;;-143.84;78.27;45132.84;4970421;28;20207;-65
2023/04/21 06:27:16;;;;;;;8.60;3.27;;;;;;;-143.84;78.29;45151.91;4970453;28;20458;-64
2023/04/21 06:29:44;;;;;;;11.18;2.45;;;;;;;-143.84;78.41;45123.34;4970047;28;21309;-64
2023/04/21 06:32:12;;;;;;;5.97;2.37;;;;;;;-143.84;78.99;45144.28;4969597;28;20268;-64
2023/04/21 06:34:39;;;;;;;4.43;2.00;;;;;;;-143.84;79.41;45104.28;4969574;28;20944;-64
2023/04/21 06:37:06;;;;;;;2.55;2.10;;;;;;;-143.84;80.17;45117.63;4969894;28;20444;-64
2023/04/21 06:39:34;;;;;;;3.53;1.90;;;;;;;-143.84;80.29;45136.66;4969977;28;20738;-64
2023/04/21 06:42:01;;;;;;;5.90;2.27;;;;;;;-143.84;80.55;45132.84;4970217;28;20484;-65
2023/04/21 06:44:28;;;;;;;3.37;2.00;;;;;;;-143.84;80.82;45115.72;4969972;28;20464;-64
2023/04/21 06:46:55;;;;;;;6.87;2.27;;;;;;;-143.84;80.84;45119.53;4969741;28;20441;-64
2023/04/21 06:49:24;;;;;;;11.35;2.00;;;;;;;-143.84;80.87;45130.94;4969844;28;20440;-64
2023/04/21 06:51:51;;;;;;;8.40;2.20;;;;;;;-143.84;80.87;45140.47;4969769;28;20625;-64
2023/04/21 06:54:18;;;;;;;5.40;1.97;;;;;;;-143.84;81.28;45111.91;4968668;28;20198;-64
2023/04/21 06:56:45;;;;;;;2.70;2.00;;;;;;;-143.84;81.47;45119.53;4968812;28;20500;-64
2023/04/21 06:59:12;;;;;;;6.10;2.40;;;;;;;-143.84;82.07;45098.56;4969747;28;20853;-64
2023/04/21 07:01:39;;;;;;;4.55;2.35;;;;;;;-143.84;82.63;45081.44;4968800;28;20870;-64
2023/04/21 07:04:06;;;;;;;8.85;2.55;;;;;;;-143.84;82.77;45054.78;4969207;28;20214;-64
2023/04/21 07:06:35;;;;;;;2.20;2.00;;;;;;;-143.84;82.61;45089.06;4969423;28;20265;-64
2023/04/21 07:09:02;;;;;;;5.17;2.33;;;;;;;-143.84;82.52;45077.63;4969607;28;20444;-64
2023/04/21 07:11:29;;;;;;;5.22;2.15;;;;;;;-143.84;82.70;45066.22;4969558;28;20450;-64
2023/04/21 07:13:57;;;;;;;8.50;2.33;;;;;;;-143.84;82.73;45064.31;4969747;28;20661;-64
2023/04/21 07:16:24;;;;;;;8.37;2.70;;;;;;;-143.84;83.01;45033.84;4969532;28;20857;-64
2023/04/21 07:18:51;;;;;;;9.18;2.90;;;;;;;-143.84;82.80;45081.44;4969423;28;20491;-65
2023/04/21 07:21:18;;;;;;;4.32;2.75;;;;;;;-143.84;82.68;45066.22;4970574;28;20208;-64
2023/04/21 07:23:46;;;;;;;8.70;3.23;;;;;;;-143.84;82.40;45089.06;4972567;28;20795;-64
2023/04/21 07:26:14;;;;;;;11.20;3.60;;;;;;;-143.84;82.22;45083.34;4972930;28;20943;-64
2023/04/21 07:28:41;;;;;;;8.30;3.13;;;;;;;-143.84;82.39;45075.72;4972948;28;20445;-64
2023/04/21 07:31:08;;;;;;;8.73;3.67;;;;;;;-143.84;81.84;45075.72;4972871;28;20898;-64
2023/04/21 07:33:35;;;;;;;9.30;3.67;;;;;;;-143.84;81.52;45113.81;4972854;28;20441;-65
2023/04/21 07:36:02;;;;;;;11.03;3.73;;;;;;;-143.84;80.75;45125.22;4973107;28;20510;-64
2023/04/21 07:38:29;;;;;;;15.47;3.40;;;;;;;-143.84;80.92;45111.91;4972625;28;20446;-64
2023/04/21 07:40:58;;;;;;;6.57;3.00;;;;;;;-143.84;81.38;45144.28;4972804;28;20448;-64
2023/04/21 07:43:26;;;;;;;8.13;3.30;;;;;;;-143.84;81.07;45115.72;4972810;28;20485;-64
2023/04/21 07:45:53;;;;;;;12.40;3.50;;;;;;;-143.84;80.15;45113.81;4972375;28;20964;-65
2023/04/21 07:48:20;;;;;;;26.40;4.10;;;;;;;-143.84;79.23;45144.28;4972479;28;20477;-64
2023/04/21 07:50:49;;;;;;;6.20;2.80;;;;;;;-143.84;79.00;45134.75;4972408;28;20504;-64
2023/04/21 07:53:16;;;;;;;13.00;3.03;;;;;;;-143.84;78.65;45140.47;4972624;28;20454;-64
2023/04/21 07:55:43;;;;;;;15.73;3.63;;;;;;;-143.84;78.00;45142.38;4972506;28;20445;-64
2023/04/21 07:58:12;;;;;;;11.87;4.40;;;;;;;-143.84;78.14;45157.59;4972383;28;20493;-65
2023/04/21 08:00:39;;;;;;;14.13;3.20;;;;;;;-143.84;77.77;45163.31;4972199;28;20457;-64
2023/04/21 08:03:06;;;;;;;18.20;3.57;;;;;;;-143.84;76.83;45163.31;4972053;28;20520;-64
2023/04/21 08:05:34;;;;;;;8.80;2.80;;;;;;;-143.84;76.30;45163.31;4971829;28;20500;-64
2023/04/21 08:08:01;;;;;;;12.40;3.97;;;;;;;-143.84;74.31;45172.84;4971983;28;20206;-64
2023/04/21 08:10:28;;;;;;;19.83;3.50;;;;;;;-143.84;71.60;45150.00;4972256;28;20199;-64
2023/04/21 08:12:55;;;;;;;16.63;4.10;;;;;;;-143.84;72.05;45178.56;4972183;28;20809;-65
2023/04/21 08:15:24;;;;;;;14.83;3.60;;;;;;;-143.84;71.79;45167.13;4971882;28;20445;-64
2023/04/21 08:17:52;;;;;;;8.07;3.60;;;;;;;-143.84;70.48;45174.75;4971699;28;20489;-65
2023/04/21 08:20:19;;;;;;;10.30;3.70;;;;;;;-143.84;69.35;45178.56;4972242;28;21192;-64
2023/04/21 08:22:46;;;;;;;18.07;3.70;;;;;;;-143.84;69.70;45178.56;4971825;28;20492;-64
2023/04/21 08:25:13;;;;;;;12.10;3.73;;;;;;;-143.84;70.30;45169.03;4972107;28;20509;-65
2023/04/21 08:27:40;;;;;;;16.43;4.20;;;;;;;-143.84;69.22;45169.03;4971956;28;20528;-64
2023/04/21 08:30:09;;;;;;;15.40;3.90;;;;;;;-143.84;68.26;45170.94;4971805;28;20453;-64
2023/04/21 08:32:37;;;;;;;25.83;4.10;;;;;;;-143.84;68.35;45148.09;4971270;28;20449;-65
2023/04/21 08:35:05;;;;;;;16.63;3.50;;;;;;;-143.84;67.77;45153.81;4971826;28;20873;-65
2023/04/21 08:37:32;;;;;;;24.27;5.00;;;;;;;-143.84;66.81;45155.69;4971633;28;20953;-65
2023/04/21 08:39:59;;;;;;;12.83;3.37;;;;;;;-143.84;67.41;45169.03;4971624;28;20501;-65
2023/04/21 08:42:26;;;;;;;11.35;4.10;;;;;;;-143.84;66.52;45174.75;4971322;28;20608;-64
2023/04/21 08:44:53;;;;;;;12.43;3.47;;;;;;;-143.84;66.84;45210.94;4972876;28;20666;-64
2023/04/21 08:47:22;;;;;;;15.30;4.10;;;;;;;-143.84;65.52;45170.94;4972310;28;20449;-64
2023/04/21 08:49:53;;;;;;;13.77;3.50;;;;;;;-143.84;64.98;45150.00;4972266;28;20446;-64
2023/04/21 08:52:20;;;;;;;26.93;3.73;;;;;;;-143.84;64.34;45180.47;4972423;28;20788;-64
2023/04/21 08:54:50;;;;;;;20.80;4.03;;;;;;;-143.84;64.11;45161.41;4972351;28;20500;-64
2023/04/21 08:57:17;;;;;;;18.23;3.87;;;;;;;-143.84;65.06;45193.78;4972949;28;20306;-64
2023/04/21 08:59:45;;;;;;;27.47;4.70;;;;;;;-143.84;63.67;45159.50;4972879;28;20433;-65
2023/04/21 09:02:14;;;;;;;13.03;5.00;;;;;;;-143.84;61.97;45167.13;4971831;28;20442;-68
2023/04/21 09:04:42;;;;;;;24.00;3.40;;;;;;;-143.84;61.97;45176.66;4970453;28;20503;-68
2023/04/21 09:07:11;;;;;;;11.40;4.30;;;;;;;-143.84;62.76;45174.75;4970772;28;20448;-68
2023/04/21 09:09:54;;;;;;;16.20;3.37;;;;;;;-143.84;61.94;45163.31;4971007;28;20443;-68
2023/04/21 09:12:21;;;;;;;21.87;3.50;;;;;;;-143.84;61.29;45163.31;4969064;28;21012;-68
2023/04/21 09:14:48;;;;;;;15.73;4.00;;;;;;;-143.84;61.00;45169.03;4970777;28;20455;-68
2023/04/21 09:17:17;;;;;;;9.93;3.00;;;;;;;-143.84;59.64;45174.75;4970674;28;20488;-68
2023/04/21 09:19:44;;;;;;;13.57;3.90;;;;;;;-143.84;57.61;45161.41;4969775;28;20485;-68
2023/04/21 09:22:17;;;;;;;14.77;3.70;;;;;;;-143.84;58.53;45159.50;4970118;28;20856;-68
2023/04/21 09:24:48;;;;;;;7.85;3.60;;;;;;;-143.84;57.17;45165.22;4970255;28;21238;-68
2023/04/21 09:27:16;;;;;;;20.10;3.90;;;;;;;-143.84;54.77;45151.91;4969777;28;20212;-68
2023/04/21 09:29:48;;;;;;;8.63;4.17;;;;;;;-143.84;55.98;45150.00;4969916;28;20458;-68
2023/04/21 09:32:19;;;;;;;14.10;4.07;;;;;;;-143.84;53.81;45167.13;4969669;28;20457;-68
2023/04/21 09:34:46;;;;;;;7.97;3.23;;;;;;;-143.84;54.83;45170.94;4969439;28;20529;-68
2023/04/21 09:37:15;;;;;;;23.43;4.10;;;;;;;-143.84;54.38;45172.84;4969696;28;20442;-68
2023/04/21 09:39:46;;;;;;;11.40;4.00;;;;;;;-143.84;55.68;45136.66;4969747;28;20449;-68
2023/04/21 09:42:14;;;;;;;31.20;4.93;;;;;;;-143.84;53.41;45142.38;4969798;28;20445;-68
2023/04/21 09:44:41;;;;;;;28.17;5.30;;;;;;;-143.84;51.03;45151.91;4968880;28;20485;-68
2023/04/21 09:47:12;;;;;;;14.00;3.87;;;;;;;-143.84;50.87;45155.69;4969898;28;20822;-68
2023/04/21 09:49:43;;;;;;;15.90;3.88;;;;;;;-143.84;49.48;45148.09;4969673;28;20525;-68
2023/04/21 09:52:12;;;;;;;23.20;4.13;;;;;;;-143.84;49.62;45121.44;4969677;28;20648;-68
2023/04/21 09:54:45;;;;;;;17.43;3.57;;;;;;;-143.84;49.46;45136.66;4969521;28;20456;-68
2023/04/21 09:57:16;;;;;;;18.30;3.40;;;;;;;-143.84;49.90;45161.41;4969362;28;20446;-68
2023/04/21 09:59:47;;;;;;;21.63;4.10;;;;;;;-143.84;49.45;45150.00;4969550;28;20454;-68
2023/04/21 10:02:17;;;;;;;15.03;3.57;;;;;;;-143.84;50.21;45163.31;4969079;28;20533;-68
2023/04/21 10:04:45;;;;;;;12.48;4.03;;;;;;;-143.84;50.25;45148.09;4969382;28;20555;-68
2023/04/21 10:07:12;;;;;;;16.70;3.73;;;;;;;-143.84;49.81;45136.66;4969553;28;20261;-68
2023/04/21 10:09:46;;;;;;;13.57;3.80;;;;;;;-143.84;50.92;45119.53;4969327;28;20448;-68
2023/04/21 10:12:15;;;;;;;24.20;3.80;;;;;;;-143.84;51.44;45161.41;4969238;28;20450;-68
2023/04/21 10:14:42;;;;;;;18.10;4.67;;;;;;;-143.84;51.97;45140.47;4969415;28;20442;-68
2023/04/21 10:17:11;;;;;;;9.70;3.67;;;;;;;-143.84;50.48;45155.69;4969460;28;21168;-68
2023/04/21 10:19:48;;;;;;;18.90;4.23;;;;;;;-143.84;51.06;45142.38;4925193;28;1305006;-68
2023/04/21 10:22:15;;;;;;;17.30;4.07;;;;;;;-143.84;50.45;45132.84;4970184;28;20291;-68
2023/04/21 10:24:46;;;;;;;10.40;3.87;;;;;;;-143.84;49.51;45140.47;4969804;28;20855;-68
2023/04/21 10:27:30;;;;;;;13.53;3.60;;;;;;;-143.84;49.80;45146.19;4969701;28;20447;-68
2023/04/21 10:29:58;;;;;;;15.33;4.33;;;;;;;-143.84;50.93;45134.75;4969646;28;20967;-68
2023/04/21 10:32:40;;;;;;;11.30;3.63;;;;;;;-143.84;50.08;45142.38;4969681;28;20448;-67
2023/04/21 10:35:10;;;;;;;11.50;3.70;;;;;;;-143.84;49.98;45142.38;4969877;28;20517;-67
2023/04/21 10:37:37;;;;;;;14.98;3.97;;;;;;;-143.84;48.65;45157.59;4969830;28;20523;-67
2023/04/21 10:40:09;;;;;;;15.27;3.20;;;;;;;-143.84;48.23;45148.09;4969834;28;20203;-68
2023/04/21 10:42:37;;;;;;;18.70;4.30;;;;;;;-143.84;48.27;45163.31;4969676;28;20533;-68
2023/04/21 10:45:10;;;;;;;12.10;4.23;;;;;;;-143.84;47.41;45151.91;4969635;28;20503;-68
2023/04/21 10:47:42;;;;;;;16.50;4.20;;;;;;;-143.84;47.33;45130.94;4969740;28;20945;-67
2023/04/21 10:50:15;;;;;;;15.77;4.00;;;;;;;-143.84;46.85;45132.84;4969855;28;20512;-67
2023/04/21 10:52:47;;;;;;;11.95;3.35;;;;;;;-143.84;46.17;45146.19;4969683;28;20451;-67
2023/04/21 10:55:16;;;;;;;10.80;4.20;;;;;;;-143.84;45.98;45138.56;4970936;28;20199;-68
2023/04/21 10:57:45;;;;;;;11.27;2.90;;;;;;;-143.84;45.21;45119.53;4973089;28;20453;-67
2023/04/21 11:00:16;;;;;;;17.37;3.50;;;;;;;-143.84;46.83;45132.84;4972510;28;20443;-67
2023/04/21 11:02:44;;;;;;;7.67;3.43;;;;;;;-143.84;46.89;45136.66;4973088;28;20448;-67
2023/04/21 11:05:11;;;;;;;14.63;3.67;;;;;;;-143.84;45.67;45119.53;4972971;28;20494;-68
2023/04/21 11:07:38;;;;;;;26.27;4.10;;;;;;;-143.84;46.27;45115.72;4973082;28;20950;-68
2023/04/21 11:10:08;;;;;;;18.60;3.60;;;;;;;-143.84;45.22;45169.03;4973037;28;20439;-68
2023/04/21 11:12:39;;;;;;;9.30;3.20;;;;;;;-143.84;44.98;45136.66;4972873;28;20464;-67